createdAt,value
2023-04-28T00:02:48.681Z,7.13
2023-04-28T00:05:52.912Z,6.87
2023-04-28T00:08:54.632Z,3.60
2023-04-28T00:11:56.445Z,6.17
2023-04-28T00:14:58.099Z,5.57
2023-04-28T00:17:59.837Z,4.30
2023-04-28T00:21:01.894Z,8.67
2023-04-28T00:24:03.705Z,5.10
2023-04-28T00:27:05.445Z,4.63
2023-04-28T00:30:07.786Z,7.77
2023-04-28T00:33:09.569Z,4.20
2023-04-28T00:36:11.749Z,6.97
2023-04-28T00:39:13.384Z,8.47
2023-04-28T00:42:15.585Z,6.90
2023-04-28T00:45:17.268Z,6.27
2023-04-28T00:48:19.516Z,6.37
2023-04-28T00:51:21.481Z,4.10
2023-04-28T00:54:23.538Z,6.83
2023-04-28T00:57:25.253Z,8.93
2023-04-28T01:00:26.967Z,6.00
2023-04-28T01:03:29.215Z,7.23
2023-04-28T01:06:32.960Z,4.90
2023-04-28T01:09:36.464Z,5.80
2023-04-28T01:12:38.828Z,5.67
2023-04-28T01:15:41.387Z,6.37
2023-04-28T01:18:47.184Z,7.40
2023-04-28T01:21:50.197Z,7.73
2023-04-28T01:24:55.565Z,5.53
2023-04-28T01:27:58.167Z,4.57
2023-04-28T01:31:00.062Z,5.70
2023-04-28T01:34:01.928Z,4.70
2023-04-28T01:37:03.855Z,6.13
2023-04-28T01:40:06.184Z,5.70
2023-04-28T01:43:07.860Z,5.40
2023-04-28T01:46:10.262Z,6.60
2023-04-28T01:49:11.924Z,5.73
2023-04-28T01:52:13.744Z,4.77
2023-04-28T01:55:15.925Z,5.23
2023-04-28T01:58:17.746Z,3.87
2023-04-28T02:01:19.548Z,6.77
2023-04-28T02:04:21.329Z,5.80
2023-04-28T02:07:23.003Z,7.37
2023-04-28T02:10:24.671Z,8.03
2023-04-28T02:13:26.357Z,4.60
2023-04-28T02:16:28.414Z,5.43
2023-04-28T02:19:30.127Z,7.00
2023-04-28T02:22:31.900Z,6.73
2023-04-28T02:25:34.146Z,5.30
2023-04-28T02:28:35.918Z,7.27
2023-04-28T02:31:40.722Z,5.50
2023-04-28T02:34:42.376Z,5.63
2023-04-28T02:37:44.416Z,10.27
2023-04-28T02:40:46.853Z,11.17
2023-04-28T02:43:48.744Z,6.57
2023-04-28T02:46:50.740Z,7.07
2023-04-28T02:49:52.547Z,7.50
2023-04-28T02:52:54.575Z,7.47
2023-04-28T02:55:56.864Z,8.10
2023-04-28T02:58:58.652Z,7.00
2023-04-28T03:02:00.555Z,8.93
2023-04-28T03:05:02.348Z,6.27
2023-04-28T03:08:04.508Z,7.20
2023-04-28T03:11:06.534Z,6.77
2023-04-28T03:14:08.265Z,7.73
2023-04-28T03:17:10.344Z,8.03
2023-04-28T03:20:13.000Z,5.57
2023-04-28T03:23:14.793Z,9.67
2023-04-28T03:26:16.638Z,7.63
2023-04-28T03:29:18.358Z,12.10
2023-04-28T03:32:20.114Z,10.27
2023-04-28T03:35:21.884Z,8.30
2023-04-28T03:38:23.671Z,6.10
2023-04-28T03:41:25.654Z,11.80
2023-04-28T03:44:50.452Z,9.77
2023-04-28T03:47:52.411Z,11.97
2023-04-28T03:50:54.102Z,11.27
2023-04-28T03:53:56.033Z,9.87
2023-04-28T03:56:57.948Z,8.83
2023-04-28T03:59:59.651Z,6.83
2023-04-28T04:03:02.719Z,8.97
2023-04-28T04:06:04.825Z,9.20
2023-04-28T04:09:06.548Z,10.53
2023-04-28T04:12:08.379Z,9.57
2023-04-28T04:15:10.245Z,8.70
2023-04-28T04:18:13.350Z,8.40
2023-04-28T04:21:35.079Z,8.80
2023-04-28T04:24:37.576Z,8.13
2023-04-28T04:27:39.304Z,8.83
2023-04-28T04:30:42.319Z,13.90
2023-04-28T04:33:44.062Z,9.00
2023-04-28T04:36:46.375Z,9.53
2023-04-28T04:39:48.075Z,10.70
2023-04-28T04:42:50.892Z,9.47
2023-04-28T04:45:54.746Z,11.70
2023-04-28T04:48:57.604Z,12.33
2023-04-28T04:52:01.559Z,8.00
2023-04-28T04:55:04.190Z,13.80
2023-04-28T04:58:07.668Z,8.60
2023-04-28T05:01:29.693Z,13.30
2023-04-28T05:04:31.821Z,8.50
2023-04-28T05:07:33.840Z,11.23
2023-04-28T05:10:35.576Z,9.33
2023-04-28T05:13:39.252Z,11.43
2023-04-28T05:16:42.335Z,11.70
2023-04-28T05:19:46.898Z,13.50
2023-04-28T05:22:49.512Z,12.27
2023-04-28T05:25:51.500Z,13.13
2023-04-28T05:28:53.234Z,10.53
2023-04-28T05:31:54.948Z,10.60
2023-04-28T05:34:58.400Z,12.83
2023-04-28T05:38:00.201Z,12.17
2023-04-28T05:41:02.448Z,12.37
2023-04-28T05:44:05.803Z,11.60
2023-04-28T05:47:08.196Z,12.80
2023-04-28T05:50:10.433Z,16.03
2023-04-28T05:53:12.158Z,13.80
2023-04-28T05:56:14.607Z,11.83
2023-04-28T05:59:16.622Z,10.93
2023-04-28T06:02:20.444Z,13.07
2023-04-28T06:05:24.014Z,15.60
2023-04-28T06:08:28.065Z,15.07
2023-04-28T06:11:29.985Z,15.23
2023-04-28T06:14:32.423Z,13.60
2023-04-28T06:17:34.260Z,12.43
2023-04-28T06:20:36.114Z,15.17
2023-04-28T06:23:40.635Z,12.10
2023-04-28T06:26:42.432Z,12.30
2023-04-28T06:29:44.926Z,13.97
2023-04-28T06:32:46.775Z,12.60
2023-04-28T06:35:48.567Z,12.40
2023-04-28T06:38:51.303Z,12.87
2023-04-28T06:41:53.340Z,12.13
2023-04-28T06:44:57.534Z,10.20
2023-04-28T06:48:02.473Z,13.93
2023-04-28T06:51:04.996Z,14.67
2023-04-28T06:54:08.991Z,14.87
2023-04-28T06:57:10.661Z,12.07
2023-04-28T07:00:12.826Z,11.53
2023-04-28T07:03:14.645Z,12.33
2023-04-28T07:06:16.812Z,15.33
2023-04-28T07:09:18.808Z,13.40
2023-04-28T07:12:21.414Z,11.40
2023-04-28T07:15:24.508Z,13.17
2023-04-28T07:18:26.237Z,16.47
2023-04-28T07:21:28.292Z,15.37
2023-04-28T07:24:30.658Z,13.90
2023-04-28T07:27:32.393Z,16.43
2023-04-28T07:30:34.468Z,20.73
2023-04-28T07:33:36.152Z,16.83
2023-04-28T07:36:37.855Z,13.27
2023-04-28T07:39:40.502Z,16.57
2023-04-28T07:42:42.371Z,17.20
2023-04-28T07:45:45.827Z,14.93
2023-04-28T07:48:47.653Z,18.03
2023-04-28T07:51:49.670Z,12.63
2023-04-28T07:54:51.378Z,13.47
2023-04-28T07:57:53.053Z,11.13
2023-04-28T08:00:54.693Z,13.07
2023-04-28T08:03:56.734Z,15.33
2023-04-28T08:07:02.520Z,17.50
2023-04-28T08:10:05.009Z,14.23
2023-04-28T08:13:06.777Z,17.57
2023-04-28T08:16:08.545Z,13.87
2023-04-28T08:19:10.228Z,14.50
2023-04-28T08:22:12.412Z,14.93
2023-04-28T08:25:14.146Z,14.47
2023-04-28T08:28:15.797Z,16.43
2023-04-28T08:31:17.975Z,11.07
2023-04-28T08:34:19.896Z,19.80
2023-04-28T08:37:21.726Z,11.83
2023-04-28T08:40:24.329Z,15.83
2023-04-28T08:43:26.021Z,13.10
2023-04-28T08:46:29.004Z,12.40
2023-04-28T08:49:36.262Z,15.13
2023-04-28T08:52:39.104Z,13.13
2023-04-28T08:55:41.245Z,17.77
2023-04-28T08:58:43.268Z,11.80
2023-04-28T09:01:49.097Z,12.63
2023-04-28T09:04:51.083Z,16.27
2023-04-28T09:07:52.974Z,12.03
2023-04-28T09:11:09.221Z,13.30
2023-04-28T09:14:13.909Z,13.33
2023-04-28T09:17:16.515Z,12.63
2023-04-28T09:20:23.185Z,11.50
2023-04-28T09:23:24.825Z,12.67
2023-04-28T09:26:26.522Z,14.20
2023-04-28T09:29:30.975Z,12.17
2023-04-28T09:32:32.958Z,12.10
2023-04-28T09:35:48.239Z,13.47
2023-04-28T09:38:50.021Z,12.23
2023-04-28T09:41:51.750Z,15.47
2023-04-28T09:44:54.533Z,19.53
2023-04-28T09:48:10.716Z,11.57
2023-04-28T09:51:13.130Z,12.00
2023-04-28T09:54:16.836Z,9.63
2023-04-28T09:57:19.309Z,16.93
2023-04-28T10:00:22.530Z,14.87
2023-04-28T10:03:30.302Z,10.60
2023-04-28T10:06:35.675Z,14.10
2023-04-28T10:09:38.756Z,19.13
2023-04-28T10:12:41.202Z,13.53
2023-04-28T10:15:43.257Z,10.40
2023-04-28T10:18:46.159Z,10.00
2023-04-28T10:22:15.412Z,13.27
2023-04-28T10:25:35.728Z,9.50
2023-04-28T10:28:37.875Z,9.63
2023-04-28T10:31:59.513Z,9.77
2023-04-28T10:35:26.317Z,13.33
2023-04-28T10:38:28.022Z,11.93
2023-04-28T10:41:33.141Z,9.40
2023-04-28T10:44:34.768Z,12.43
2023-04-28T10:48:06.427Z,10.07
2023-04-28T10:51:09.639Z,12.07
2023-04-28T10:54:14.628Z,14.83
2023-04-28T10:57:18.172Z,9.23
2023-04-28T11:00:32.951Z,11.37
2023-04-28T11:03:47.066Z,11.10
2023-04-28T11:07:09.907Z,13.43
2023-04-28T11:10:11.585Z,11.70
2023-04-28T11:13:33.767Z,9.67
2023-04-28T11:16:51.707Z,9.87
2023-04-28T11:19:58.109Z,8.43
2023-04-28T11:22:59.977Z,8.93
2023-04-28T11:26:01.714Z,11.57
2023-04-28T11:29:03.583Z,14.77
2023-04-28T11:32:07.375Z,16.60
2023-04-28T11:35:09.871Z,14.53
2023-04-28T11:38:11.621Z,16.87
2023-04-28T11:41:13.345Z,15.47
2023-04-28T11:44:16.227Z,16.63
2023-04-28T11:47:33.333Z,15.00
2023-04-28T11:50:38.576Z,14.40
2023-04-28T11:53:46.449Z,17.10
2023-04-28T11:56:48.212Z,12.67
2023-04-28T11:59:51.100Z,15.53
2023-04-28T12:02:53.264Z,14.53
2023-04-28T12:05:55.231Z,18.70
2023-04-28T12:08:57.911Z,13.77
2023-04-28T12:12:02.925Z,16.27
2023-04-28T12:15:06.843Z,19.33
2023-04-28T12:18:16.336Z,18.33
2023-04-28T12:21:21.851Z,17.93
2023-04-28T12:24:25.942Z,15.43
2023-04-28T12:27:28.974Z,18.13
2023-04-28T12:30:33.217Z,17.83
2023-04-28T12:33:38.612Z,20.93
2023-04-28T12:36:40.419Z,17.17
2023-04-28T12:39:42.688Z,18.43
2023-04-28T12:42:44.654Z,25.90
2023-04-28T12:45:46.404Z,20.63
2023-04-28T12:48:48.084Z,22.57
2023-04-28T12:51:49.921Z,22.80
2023-04-28T12:54:51.613Z,25.67
2023-04-28T12:57:53.301Z,27.23
2023-04-28T13:00:54.967Z,23.90
2023-04-28T13:03:59.263Z,25.87
2023-04-28T13:07:01.135Z,25.97
2023-04-28T13:10:02.825Z,25.40
2023-04-28T13:13:05.512Z,26.97
2023-04-28T13:16:07.276Z,24.97
2023-04-28T13:19:10.684Z,28.90
2023-04-28T13:22:12.480Z,22.17
2023-04-28T13:25:15.116Z,25.43
2023-04-28T13:28:16.801Z,24.87
2023-04-28T13:31:19.512Z,21.47
2023-04-28T13:34:21.576Z,23.20
2023-04-28T13:37:23.295Z,22.93
2023-04-28T13:40:24.992Z,22.03
2023-04-28T13:43:26.682Z,16.67
2023-04-28T13:46:29.359Z,16.10
2023-04-28T13:49:31.028Z,14.80
2023-04-28T13:52:32.777Z,18.23
2023-04-28T13:55:34.501Z,15.97
2023-04-28T13:58:36.829Z,12.50
2023-04-28T14:01:38.565Z,12.77
2023-04-28T14:04:40.521Z,12.40
2023-04-28T14:07:42.880Z,11.07
2023-04-28T14:10:44.618Z,13.13
2023-04-28T14:13:46.555Z,10.30
2023-04-28T14:16:48.686Z,10.77
2023-04-28T14:19:50.429Z,9.57
2023-04-28T14:22:52.178Z,9.00
2023-04-28T14:25:55.993Z,10.13
2023-04-28T14:28:58.783Z,11.03
2023-04-28T14:32:02.535Z,10.10
2023-04-28T14:35:06.027Z,9.80
2023-04-28T14:38:07.883Z,10.67
2023-04-28T14:41:09.595Z,8.93
2023-04-28T14:44:11.266Z,9.27
2023-04-28T14:47:13.104Z,9.83
2023-04-28T14:50:14.823Z,9.40
2023-04-28T14:53:16.743Z,9.20
2023-04-28T14:56:20.374Z,11.17
2023-04-28T14:59:22.102Z,8.43
2023-04-28T15:02:29.168Z,8.33
2023-04-28T15:05:31.052Z,10.70
2023-04-28T15:08:33.263Z,13.07
2023-04-28T15:11:34.968Z,9.27
2023-04-28T15:14:36.952Z,11.03
2023-04-28T15:17:38.932Z,10.80
2023-04-28T15:20:40.773Z,11.43
2023-04-28T15:23:42.724Z,9.87
2023-04-28T15:26:44.408Z,10.60
2023-04-28T15:29:46.077Z,9.53
2023-04-28T15:32:49.457Z,11.90
2023-04-28T15:35:51.158Z,11.17
2023-04-28T15:38:52.881Z,9.73
2023-04-28T15:41:54.506Z,10.87
2023-04-28T15:44:56.173Z,9.97
2023-04-28T15:47:58.742Z,11.20
2023-04-28T15:51:00.813Z,9.27
2023-04-28T15:54:02.905Z,9.77
2023-04-28T15:57:04.586Z,7.93
2023-04-28T16:00:07.338Z,8.80
2023-04-28T16:03:11.774Z,7.93
2023-04-28T16:06:13.618Z,7.83
2023-04-28T16:09:15.324Z,7.33
2023-04-28T16:12:16.971Z,8.10
2023-04-28T16:15:19.060Z,6.87
2023-04-28T16:18:20.817Z,7.43
2023-04-28T16:21:22.484Z,7.67
2023-04-28T16:24:24.675Z,11.03
2023-04-28T16:27:27.371Z,6.87
2023-04-28T16:30:30.691Z,8.30
2023-04-28T16:33:32.471Z,7.23
2023-04-28T16:36:34.125Z,6.37
2023-04-28T16:39:35.856Z,6.53
2023-04-28T16:42:37.888Z,6.67
2023-04-28T16:45:39.623Z,5.07
2023-04-28T16:48:41.856Z,6.23
2023-04-28T16:51:58.819Z,7.73
2023-04-28T16:55:00.543Z,6.40
2023-04-28T16:58:03.127Z,5.43
2023-04-28T17:01:04.842Z,6.23
2023-04-28T17:04:07.488Z,7.33
2023-04-28T17:07:09.331Z,5.93
2023-04-28T17:10:11.319Z,5.90
2023-04-28T17:13:13.061Z,5.27
2023-04-28T17:16:14.737Z,4.90
2023-04-28T17:19:16.713Z,5.30
2023-04-28T17:22:18.518Z,5.47
2023-04-28T17:25:23.054Z,6.13
2023-04-28T17:28:25.245Z,7.40
2023-04-28T17:31:28.202Z,5.90
2023-04-28T17:34:29.908Z,3.90
2023-04-28T17:37:35.062Z,5.73
2023-04-28T17:40:37.132Z,7.03
2023-04-28T17:43:39.327Z,6.33
2023-04-28T17:46:41.167Z,6.20
2023-04-28T17:49:42.926Z,7.10
2023-04-28T17:52:44.683Z,5.27
2023-04-28T17:55:46.362Z,5.80
2023-04-28T17:58:48.042Z,4.63
2023-04-28T18:01:49.724Z,5.30
2023-04-28T18:04:51.760Z,4.17
2023-04-28T18:07:54.052Z,4.40
2023-04-28T18:10:56.300Z,5.00
2023-04-28T18:13:58.727Z,4.03
2023-04-28T18:17:00.477Z,4.47
2023-04-28T18:20:02.172Z,5.87
2023-04-28T18:23:03.958Z,4.67
2023-04-28T18:26:05.731Z,4.87
2023-04-28T18:29:07.412Z,6.47
2023-04-28T18:32:10.387Z,7.43
2023-04-28T18:35:14.949Z,7.33
2023-04-28T18:38:16.632Z,6.17
2023-04-28T18:41:18.597Z,5.80
2023-04-28T18:44:20.464Z,7.57
2023-04-28T18:47:22.313Z,9.50
2023-04-28T18:50:24.260Z,6.50
2023-04-28T18:53:26.107Z,8.47
2023-04-28T18:56:27.826Z,9.47
2023-04-28T18:59:30.117Z,8.23
2023-04-28T19:02:31.888Z,8.60
2023-04-28T19:05:34.338Z,8.30
2023-04-28T19:08:38.819Z,5.90
2023-04-28T19:11:40.705Z,5.97
2023-04-28T19:14:42.373Z,6.13
2023-04-28T19:17:44.453Z,7.97
2023-04-28T19:20:46.570Z,5.60
2023-04-28T19:23:48.530Z,6.97
2023-04-28T19:26:50.365Z,7.80
2023-04-28T19:29:52.235Z,7.13
2023-04-28T19:32:54.135Z,7.73
2023-04-28T19:35:55.866Z,7.60
2023-04-28T19:38:58.164Z,10.07
2023-04-28T19:41:59.843Z,8.40
2023-04-28T19:45:02.064Z,8.43
2023-04-28T19:48:04.793Z,8.53
2023-04-28T19:51:06.487Z,9.87
2023-04-28T19:54:08.191Z,8.43
2023-04-28T19:57:09.917Z,8.97
2023-04-28T20:00:12.542Z,9.77
2023-04-28T20:03:14.795Z,7.10
2023-04-28T20:06:17.471Z,5.83
2023-04-28T20:09:19.220Z,6.13
2023-04-28T20:12:20.897Z,7.87
2023-04-28T20:15:22.643Z,4.67
2023-04-28T20:18:24.313Z,4.50
2023-04-28T20:21:27.016Z,5.73
2023-04-28T20:24:28.696Z,4.83
2023-04-28T20:27:30.353Z,6.53
2023-04-28T20:30:32.026Z,6.47
2023-04-28T20:33:33.808Z,5.63
2023-04-28T20:36:35.514Z,5.53
2023-04-28T20:39:37.313Z,5.07
2023-04-28T20:42:38.972Z,6.43
2023-04-28T20:45:41.907Z,6.63
2023-04-28T20:48:43.708Z,7.93
2023-04-28T20:51:45.462Z,7.53
2023-04-28T20:54:47.762Z,6.97
2023-04-28T20:57:49.455Z,6.37
2023-04-28T21:00:51.291Z,6.70
2023-04-28T21:03:53.130Z,6.87
2023-04-28T21:06:55.429Z,7.60
2023-04-28T21:09:57.995Z,7.47
2023-04-28T21:12:59.671Z,10.63
2023-04-28T21:16:01.630Z,8.33
2023-04-28T21:19:03.342Z,9.27
2023-04-28T21:22:05.110Z,8.53
2023-04-28T21:25:08.314Z,8.97
2023-04-28T21:28:10.802Z,9.47
2023-04-28T21:31:12.475Z,9.53
2023-04-28T21:34:14.480Z,10.40
2023-04-28T21:37:16.184Z,8.93
2023-04-28T21:40:19.676Z,9.23
2023-04-28T21:43:22.333Z,10.73
2023-04-28T21:46:24.049Z,10.50
2023-04-28T21:49:25.875Z,9.70
2023-04-28T21:52:27.564Z,12.13
2023-04-28T21:55:29.493Z,10.13
2023-04-28T21:58:31.740Z,9.67
2023-04-28T22:01:33.812Z,9.63
2023-04-28T22:04:36.073Z,10.63
2023-04-28T22:07:37.844Z,11.40
2023-04-28T22:10:39.823Z,11.77
2023-04-28T22:13:41.629Z,12.53
2023-04-28T22:16:43.283Z,11.97
2023-04-28T22:19:45.226Z,9.37
2023-04-28T22:22:46.935Z,12.00
2023-04-28T22:25:49.174Z,14.87
2023-04-28T22:28:51.495Z,11.87
2023-04-28T22:31:53.445Z,12.07
2023-04-28T22:34:55.253Z,14.43
2023-04-28T22:37:57.146Z,15.47
2023-04-28T22:40:58.914Z,18.23
2023-04-28T22:44:00.605Z,17.80
2023-04-28T22:47:02.407Z,17.63
2023-04-28T22:50:05.978Z,19.37
2023-04-28T22:53:08.104Z,18.17
2023-04-28T22:56:09.881Z,15.70
2023-04-28T22:59:11.699Z,17.43
2023-04-28T23:02:13.635Z,18.17
2023-04-28T23:05:15.534Z,19.93
2023-04-28T23:08:17.272Z,20.57
2023-04-28T23:11:18.989Z,19.23
2023-04-28T23:14:20.664Z,20.97
2023-04-28T23:17:22.333Z,22.80
2023-04-28T23:20:24.034Z,20.43
2023-04-28T23:23:25.693Z,28.50
2023-04-28T23:26:27.404Z,25.83
2023-04-28T23:29:29.124Z,26.60
2023-04-28T23:32:30.767Z,27.17
2023-04-28T23:35:33.171Z,23.40
2023-04-28T23:38:35.082Z,23.63
2023-04-28T23:41:37.171Z,30.03
2023-04-28T23:44:38.847Z,27.60
2023-04-28T23:47:41.574Z,29.97
2023-04-28T23:50:43.555Z,29.37
2023-04-28T23:53:45.314Z,31.83
2023-04-28T23:56:47.256Z,33.43
2023-04-28T23:59:49.080Z,36.73
